Time;durP1;ratioP1;P1;durP2;ratioP2;P2;SDS_P1;SDS_P2;PMS_P1;PMS_P2;Temp;Humidity;BMP_temperature;BMP_pressure;BME280_temperature;BME280_humidity;BME280_pressure;Samples;Min_cycle;Max_cycle;Signal;HPM_P1;HPM_P2
2021/08/15 00:00:11;;;;;;;7.07;4.90;;;;;;;16.03;100.00;100768.09;5095879;28;20307;-73
2021/08/15 00:02:41;;;;;;;5.63;4.67;;;;;;;16.02;100.00;100770.81;5089776;28;20237;-72
2021/08/15 00:05:09;;;;;;;5.37;4.50;;;;;;;15.93;99.90;100765.97;5094960;28;20231;-72
2021/08/15 00:07:37;;;;;;;7.03;4.60;;;;;;;15.92;100.00;100766.88;5086372;28;20194;-73
2021/08/15 00:10:05;;;;;;;7.30;5.00;;;;;;;15.93;100.00;100766.81;5081777;28;20658;-72
2021/08/15 00:12:31;;;;;;;5.83;4.60;;;;;;;15.79;100.00;100771.88;5089745;28;20702;-71
2021/08/15 00:14:58;;;;;;;8.13;5.40;;;;;;;15.76;100.00;100766.75;5095804;28;20204;-72
2021/08/15 00:17:24;;;;;;;6.30;4.60;;;;;;;15.73;100.00;100766.88;5085534;28;20210;-72
2021/08/15 00:19:50;;;;;;;6.33;5.23;;;;;;;15.79;100.00;100764.81;5090157;28;20219;-72
2021/08/15 00:22:17;;;;;;;6.93;5.13;;;;;;;15.75;100.00;100770.31;5084746;28;20202;-72
2021/08/15 00:24:45;;;;;;;7.27;5.70;;;;;;;15.67;100.00;100762.72;5088571;28;20578;-71
2021/08/15 00:27:11;;;;;;;8.17;5.10;;;;;;;15.68;100.00;100764.44;5086463;28;20263;-72
2021/08/15 00:29:38;;;;;;;9.57;5.67;;;;;;;15.58;100.00;100771.03;5088458;28;20198;-71
2021/08/15 00:32:06;;;;;;;6.43;5.37;;;;;;;15.62;100.00;100760.31;5086362;28;20655;-72
2021/08/15 00:34:32;;;;;;;6.50;5.33;;;;;;;15.60;100.00;100753.41;5086448;28;20245;-72
2021/08/15 00:36:59;;;;;;;9.17;6.10;;;;;;;15.59;100.00;100760.44;5103489;28;20210;-72
2021/08/15 00:39:25;;;;;;;7.57;6.17;;;;;;;15.40;100.00;100760.41;5088969;28;20214;-72
2021/08/15 00:41:53;;;;;;;7.27;5.63;;;;;;;15.45;100.00;100758.44;5090408;28;20297;-72
2021/08/15 00:44:20;;;;;;;6.93;5.77;;;;;;;15.49;100.00;100761.78;5092963;28;20232;-72
2021/08/15 00:46:48;;;;;;;5.97;5.23;;;;;;;15.45;100.00;100750.56;5097267;28;20209;-72
2021/08/15 00:49:15;;;;;;;6.70;5.40;;;;;;;15.39;100.00;100750.84;5092337;28;20196;-72
2021/08/15 00:51:41;;;;;;;8.37;5.60;;;;;;;15.41;100.00;100754.25;5087551;28;20224;-71
2021/08/15 00:54:08;;;;;;;6.67;4.93;;;;;;;15.34;100.00;100751.03;5096006;28;20220;-72
2021/08/15 00:56:34;;;;;;;7.97;5.40;;;;;;;15.27;100.00;100754.00;5092411;28;20210;-72
2021/08/15 00:59:05;;;;;;;7.37;5.50;;;;;;;15.26;100.00;100745.25;5096565;28;20242;-71
2021/08/15 01:01:32;;;;;;;8.50;5.60;;;;;;;15.17;100.00;100753.53;5089982;28;20194;-72
2021/08/15 01:04:03;;;;;;;7.00;5.70;;;;;;;15.12;100.00;100756.34;5094361;28;20225;-72
2021/08/15 01:06:29;;;;;;;6.77;5.13;;;;;;;15.02;100.00;100757.69;5098073;28;20205;-72
2021/08/15 01:08:56;;;;;;;8.17;6.43;;;;;;;14.98;100.00;100755.25;5090416;28;20693;-71
2021/08/15 01:11:22;;;;;;;7.60;5.03;;;;;;;15.01;100.00;100763.84;5091475;28;20680;-72
2021/08/15 01:13:48;;;;;;;8.20;5.80;;;;;;;15.08;100.00;100760.03;5095573;28;20229;-72
2021/08/15 01:16:16;;;;;;;6.70;5.73;;;;;;;15.05;100.00;100764.56;5099635;28;20204;-72
2021/08/15 01:18:44;;;;;;;7.07;5.60;;;;;;;14.95;100.00;100764.97;5091147;28;20661;-72
2021/08/15 01:21:13;;;;;;;7.00;5.97;;;;;;;15.00;100.00;100770.00;5091899;28;20300;-72
2021/08/15 01:23:42;;;;;;;7.23;5.63;;;;;;;15.01;100.00;100765.63;5092899;28;20221;-71
2021/08/15 01:26:09;;;;;;;7.67;5.90;;;;;;;14.95;100.00;100761.47;5080533;28;21092;-72
2021/08/15 01:28:37;;;;;;;8.63;6.30;;;;;;;14.93;100.00;100760.69;5091632;28;20224;-74
2021/08/15 01:31:04;;;;;;;7.30;5.73;;;;;;;14.92;100.00;100756.38;5089470;28;20199;-72
2021/08/15 01:33:33;;;;;;;7.63;5.73;;;;;;;14.78;100.00;100764.81;5091396;28;20213;-72
2021/08/15 01:36:00;;;;;;;8.13;6.30;;;;;;;14.74;100.00;100761.47;5090125;28;20297;-72
2021/08/15 01:38:29;;;;;;;7.87;5.43;;;;;;;14.79;100.00;100758.63;5088412;28;20209;-71
2021/08/15 01:40:56;;;;;;;7.33;5.80;;;;;;;14.68;100.00;100755.59;5092411;28;20220;-72
2021/08/15 01:43:23;;;;;;;7.90;5.80;;;;;;;14.70;100.00;100764.25;5090640;28;20226;-72
2021/08/15 01:45:52;;;;;;;7.47;5.73;;;;;;;14.61;100.00;100755.00;5090844;28;20197;-71
2021/08/15 01:48:19;;;;;;;9.83;6.10;;;;;;;14.53;100.00;100759.69;5090626;28;20297;-72
2021/08/15 01:50:45;;;;;;;7.17;5.77;;;;;;;14.48;100.00;100769.50;5092346;28;20557;-72
2021/08/15 01:53:14;;;;;;;7.00;5.73;;;;;;;14.64;100.00;100761.91;5088603;28;20222;-72
2021/08/15 01:55:41;;;;;;;6.43;5.33;;;;;;;14.58;100.00;100761.22;5098265;28;20441;-72
2021/08/15 01:58:08;;;;;;;6.80;6.00;;;;;;;14.54;100.00;100761.38;5097287;28;20704;-72
2021/08/15 02:00:35;;;;;;;9.43;6.10;;;;;;;14.43;100.00;100766.22;5092053;28;20319;-69
2021/08/15 02:03:03;;;;;;;8.23;5.83;;;;;;;14.47;100.00;100766.00;5083730;28;20725;-72
2021/08/15 02:05:30;;;;;;;7.60;6.03;;;;;;;14.39;100.00;100765.47;5090594;28;20205;-72
2021/08/15 02:07:56;;;;;;;8.17;5.30;;;;;;;14.32;100.00;100766.66;5092664;28;20193;-73
2021/08/15 02:10:24;;;;;;;10.40;5.87;;;;;;;14.41;100.00;100765.44;5096681;28;20198;-73
2021/08/15 02:12:51;;;;;;;8.13;5.93;;;;;;;14.25;100.00;100773.00;5080212;28;20227;-72
2021/08/15 02:15:18;;;;;;;10.43;5.60;;;;;;;14.22;100.00;100767.91;5097371;28;20212;-72
2021/08/15 02:17:45;;;;;;;7.47;5.97;;;;;;;14.24;100.00;100764.31;5102082;28;20668;-72
2021/08/15 02:20:14;;;;;;;8.27;5.87;;;;;;;14.23;100.00;100769.59;5095204;28;20582;-72
2021/08/15 02:22:41;;;;;;;6.13;5.47;;;;;;;14.15;100.00;100775.16;5099561;28;20217;-72
2021/08/15 02:25:09;;;;;;;6.50;5.20;;;;;;;14.15;100.00;100773.38;5087640;28;20629;-72
2021/08/15 02:27:36;;;;;;;6.83;5.50;;;;;;;14.10;100.00;100771.84;5092982;28;20684;-72
2021/08/15 02:30:03;;;;;;;8.37;5.37;;;;;;;14.20;100.00;100778.47;5092663;28;20226;-72
2021/08/15 02:32:29;;;;;;;6.83;5.57;;;;;;;14.24;100.00;100776.56;5102498;28;20712;-72
2021/08/15 02:34:56;;;;;;;7.63;5.50;;;;;;;14.20;100.00;100768.81;5089789;28;20213;-72
2021/08/15 02:37:24;;;;;;;7.57;5.57;;;;;;;14.14;100.00;100778.69;5087599;28;20206;-72
2021/08/15 02:39:51;;;;;;;7.07;4.70;;;;;;;14.05;100.00;100768.56;5087867;28;20217;-72
2021/08/15 02:42:18;;;;;;;8.07;5.90;;;;;;;13.99;100.00;100773.13;5089672;28;20580;-72
2021/08/15 02:44:44;;;;;;;7.33;5.43;;;;;;;14.02;100.00;100777.41;5090457;28;20214;-73
2021/08/15 02:47:11;;;;;;;8.40;6.17;;;;;;;13.97;100.00;100784.59;5089753;28;20684;-72
2021/08/15 02:49:39;;;;;;;6.70;5.63;;;;;;;13.98;100.00;100781.91;5088986;28;20203;-71
2021/08/15 02:52:06;;;;;;;6.63;5.50;;;;;;;13.95;100.00;100787.25;5085488;28;20197;-70
2021/08/15 02:54:34;;;;;;;6.57;5.57;;;;;;;14.06;100.00;100783.38;5096173;28;20228;-72
2021/08/15 02:57:00;;;;;;;7.77;5.80;;;;;;;13.88;100.00;100780.53;5088019;28;20584;-72
2021/08/15 02:59:27;;;;;;;8.13;5.40;;;;;;;14.00;100.00;100782.69;5085874;28;20212;-72
2021/08/15 03:01:53;;;;;;;7.00;5.67;;;;;;;14.02;100.00;100780.03;5090588;28;20202;-72
2021/08/15 03:04:19;;;;;;;7.17;5.30;;;;;;;14.04;100.00;100786.06;5088563;28;20230;-72
2021/08/15 03:06:46;;;;;;;5.87;5.27;;;;;;;14.01;100.00;100792.25;5094211;28;20212;-72
2021/08/15 03:09:12;;;;;;;6.93;5.40;;;;;;;13.99;100.00;100793.25;5098079;28;20207;-72
2021/08/15 03:11:40;;;;;;;7.20;5.27;;;;;;;13.96;100.00;100788.94;5092210;28;20203;-71
2021/08/15 03:14:06;;;;;;;6.90;4.90;;;;;;;13.88;100.00;100790.16;5087266;28;20548;-72
2021/08/15 03:16:33;;;;;;;6.63;5.20;;;;;;;13.83;100.00;100791.19;5091296;28;20203;-72
2021/08/15 03:22:46;;;;;;;7.20;5.00;;;;;;;13.85;100.00;100780.66;5086361;28;20226;-73
2021/08/15 03:25:12;;;;;;;7.67;5.33;;;;;;;13.83;100.00;100783.31;5093685;28;20200;-72
2021/08/15 03:27:40;;;;;;;7.83;5.20;;;;;;;13.92;100.00;100776.03;5085591;28;20205;-72
2021/08/15 03:30:07;;;;;;;6.27;5.07;;;;;;;13.94;100.00;100774.22;5086797;28;20211;-72
2021/08/15 03:32:33;;;;;;;7.60;5.33;;;;;;;13.83;100.00;100778.09;5089645;28;20213;-73
2021/08/15 03:35:00;;;;;;;6.53;4.93;;;;;;;13.76;100.00;100778.38;5088972;28;20213;-72
2021/08/15 03:37:26;;;;;;;6.93;5.77;;;;;;;13.92;100.00;100778.66;5088533;28;20194;-72
2021/08/15 03:39:53;;;;;;;7.17;5.20;;;;;;;13.83;100.00;100775.47;5091457;28;20463;-72
2021/08/15 03:42:19;;;;;;;7.00;5.67;;;;;;;13.95;100.00;100783.78;5092281;28;20603;-72
2021/08/15 03:44:47;;;;;;;7.20;5.50;;;;;;;13.80;100.00;100786.06;5088296;28;20215;-72
2021/08/15 03:47:13;;;;;;;8.23;6.07;;;;;;;13.82;100.00;100779.00;5088260;28;20202;-72
2021/08/15 03:49:40;;;;;;;9.00;5.63;;;;;;;13.74;100.00;100788.06;5083552;28;20216;-74
2021/08/15 03:52:07;;;;;;;7.73;5.03;;;;;;;13.96;100.00;100778.47;5088212;28;20207;-75
2021/08/15 03:54:33;;;;;;;7.43;5.37;;;;;;;13.70;100.00;100776.84;5088940;28;20308;-74
2021/08/15 03:56:59;;;;;;;8.13;5.37;;;;;;;13.86;100.00;100778.88;5086626;28;20196;-72
2021/08/15 04:02:54;;;;;;;7.23;5.87;;;;;;;13.81;100.00;100781.69;5093349;28;20275;-74
2021/08/15 04:05:20;;;;;;;6.53;5.40;;;;;;;13.80;100.00;100779.97;5091541;28;20582;-74
2021/08/15 04:07:47;;;;;;;9.33;5.70;;;;;;;13.81;100.00;100776.44;5092927;28;20561;-74
2021/08/15 04:10:13;;;;;;;6.83;5.53;;;;;;;13.81;100.00;100779.06;5091390;28;20561;-72
2021/08/15 04:12:40;;;;;;;6.17;5.17;;;;;;;13.86;100.00;100778.88;5095743;28;20221;-73
2021/08/15 04:15:07;;;;;;;9.57;5.63;;;;;;;13.93;100.00;100776.00;5099891;28;20214;-72
2021/08/15 04:17:33;;;;;;;8.03;5.80;;;;;;;13.88;100.00;100772.69;5093875;28;20202;-72
2021/08/15 04:20:01;;;;;;;7.07;5.73;;;;;;;14.15;100.00;100770.75;5096511;28;20227;-72
2021/08/15 04:22:27;;;;;;;6.97;5.23;;;;;;;13.98;100.00;100773.16;5090967;28;20559;-72
2021/08/15 04:24:54;;;;;;;7.03;5.70;;;;;;;13.99;100.00;100769.66;5090161;28;20211;-72
2021/08/15 04:27:20;;;;;;;11.00;5.93;;;;;;;13.90;100.00;100762.13;5092236;28;20204;-72
2021/08/15 04:29:46;;;;;;;9.10;6.13;;;;;;;14.12;100.00;100765.63;5091632;28;20208;-72
2021/08/15 04:32:13;;;;;;;10.80;6.20;;;;;;;14.10;100.00;100761.38;5098847;28;20200;-72
2021/08/15 04:34:39;;;;;;;7.63;5.60;;;;;;;14.25;100.00;100768.66;5089867;28;20203;-72
2021/08/15 04:37:08;;;;;;;8.13;6.07;;;;;;;14.51;100.00;100775.50;5089639;28;20210;-72
2021/08/15 04:39:35;;;;;;;8.20;5.63;;;;;;;14.37;100.00;100770.78;5090577;28;20264;-72
2021/08/15 04:42:01;;;;;;;7.57;6.33;;;;;;;14.54;100.00;100764.84;5090648;28;20480;-72
2021/08/15 04:44:28;;;;;;;6.97;5.87;;;;;;;14.54;100.00;100772.72;5087670;28;20225;-72
2021/08/15 04:46:54;;;;;;;6.63;5.67;;;;;;;14.79;100.00;100765.66;5090722;28;20217;-72
2021/08/15 04:49:21;;;;;;;10.63;5.70;;;;;;;14.91;100.00;100767.78;5091207;28;20216;-73
2021/08/15 04:52:14;;;;;;;6.90;5.73;;;;;;;14.90;100.00;100766.09;5094821;28;20480;-72
2021/08/15 04:54:40;;;;;;;7.90;6.30;;;;;;;15.18;100.00;100767.50;5095396;28;20220;-72
2021/08/15 04:57:07;;;;;;;9.03;6.30;;;;;;;15.20;100.00;100768.31;5092183;28;20206;-72
2021/08/15 04:59:34;;;;;;;7.00;6.30;;;;;;;15.33;100.00;100777.34;5092821;28;20233;-71
2021/08/15 05:02:03;;;;;;;10.40;6.63;;;;;;;15.43;100.00;100780.44;5098019;28;20216;-72
2021/08/15 05:04:29;;;;;;;9.47;6.43;;;;;;;15.48;100.00;100767.97;5091393;28;20234;-73
2021/08/15 05:06:55;;;;;;;8.43;6.43;;;;;;;15.71;100.00;100764.31;5090541;28;20224;-72
2021/08/15 05:13:24;;;;;;;7.20;5.90;;;;;;;15.76;100.00;100772.88;5087086;28;20210;-73
2021/08/15 05:15:51;;;;;;;9.73;7.37;;;;;;;15.79;100.00;100782.38;5095201;28;20222;-72
2021/08/15 05:18:17;;;;;;;8.03;7.03;;;;;;;15.87;100.00;100775.00;5090554;28;20206;-73
2021/08/15 05:20:44;;;;;;;8.53;6.40;;;;;;;15.89;100.00;100786.31;5095263;28;20222;-73
2021/08/15 05:23:11;;;;;;;7.87;6.40;;;;;;;16.07;100.00;100782.81;5088049;28;20598;-73
2021/08/15 05:25:38;;;;;;;8.03;6.43;;;;;;;16.21;100.00;100782.16;5091296;28;20203;-73
2021/08/15 05:28:05;;;;;;;8.23;6.30;;;;;;;16.21;100.00;100790.06;5089070;28;20206;-72
2021/08/15 05:31:12;;;;;;;9.13;5.83;;;;;;;16.36;100.00;100785.00;5089020;28;20207;-72
2021/08/15 05:37:52;;;;;;;10.03;6.00;;;;;;;16.58;100.00;100780.41;5086174;28;20241;-72
2021/08/15 05:40:18;;;;;;;7.83;5.60;;;;;;;16.57;95.86;100780.47;5086386;28;20632;-73
2021/08/15 05:42:45;;;;;;;9.10;5.80;;;;;;;16.61;95.86;100777.63;5089884;28;20252;-73
2021/08/15 05:45:12;;;;;;;8.80;5.93;;;;;;;16.63;93.50;100786.28;5086198;28;20201;-72
2021/08/15 05:47:39;;;;;;;6.57;5.53;;;;;;;16.77;95.90;100779.50;5094030;28;20209;-73
2021/08/15 05:50:09;;;;;;;6.50;5.13;;;;;;;16.91;96.58;100789.41;5086860;28;20209;-73
2021/08/15 05:52:35;;;;;;;6.97;4.97;;;;;;;17.00;96.13;100779.22;5089024;28;20218;-72
2021/08/15 05:55:04;;;;;;;8.83;5.17;;;;;;;16.99;91.32;100795.97;5093368;28;20205;-73
2021/08/15 05:57:30;;;;;;;7.50;4.77;;;;;;;17.09;93.99;100793.72;5087103;28;20228;-72
2021/08/15 05:59:57;;;;;;;8.00;5.40;;;;;;;17.14;89.16;100809.31;5093680;28;20911;-72
2021/08/15 06:02:23;;;;;;;7.53;4.50;;;;;;;17.30;89.35;100810.22;5086845;28;20220;-73
2021/08/15 06:04:49;;;;;;;5.40;4.53;;;;;;;17.43;91.60;100807.81;5089830;28;20209;-73
2021/08/15 06:07:16;;;;;;;7.77;5.30;;;;;;;17.53;91.60;100805.53;5086912;28;20201;-69
2021/08/15 06:09:42;;;;;;;7.27;5.60;;;;;;;17.65;91.26;100812.81;5087511;28;20209;-72
2021/08/15 06:12:10;;;;;;;6.10;4.87;;;;;;;17.79;91.53;100809.44;5085588;28;20205;-71
2021/08/15 06:14:37;;;;;;;7.27;4.90;;;;;;;17.78;84.52;100813.88;5085513;28;20225;-73
2021/08/15 06:17:03;;;;;;;7.33;4.83;;;;;;;17.90;87.05;100807.09;5094086;28;20229;-73
2021/08/15 06:19:30;;;;;;;7.63;4.80;;;;;;;18.06;86.42;100808.91;5084300;28;20581;-70
2021/08/15 06:21:56;;;;;;;8.77;4.87;;;;;;;18.16;83.24;100808.31;5088440;28;20221;-72
2021/08/15 06:24:23;;;;;;;8.90;5.53;;;;;;;18.24;83.65;100814.97;5086003;28;20218;-73
2021/08/15 06:27:33;;;;;;;6.03;4.93;;;;;;;18.36;84.19;100806.34;5085997;28;20212;-73
2021/08/15 06:30:01;;;;;;;8.17;4.93;;;;;;;18.51;82.43;100809.94;5082352;28;20193;-73
2021/08/15 06:32:27;;;;;;;6.17;4.23;;;;;;;18.76;83.13;100814.66;5083804;28;20587;-73
2021/08/15 06:38:41;;;;;;;6.83;4.57;;;;;;;18.79;81.53;100806.59;5045278;22;20233;-73
2021/08/15 06:41:08;;;;;;;6.47;4.43;;;;;;;18.81;80.75;100812.63;5040257;23;20336;-71
2021/08/15 06:43:34;;;;;;;6.40;4.27;;;;;;;18.92;82.51;100804.09;5055890;28;20691;-73
2021/08/15 06:46:02;;;;;;;8.40;4.67;;;;;;;19.05;78.82;100812.16;5061920;28;20773;-72
2021/08/15 06:48:28;;;;;;;4.73;3.80;;;;;;;19.22;77.44;100814.66;5066098;28;20194;-72
2021/08/15 06:50:58;;;;;;;5.73;4.03;;;;;;;19.28;76.20;100809.00;5043888;28;20224;-73
2021/08/15 06:53:25;;;;;;;6.17;3.93;;;;;;;19.32;76.61;100808.84;5044055;28;20254;-73
2021/08/15 06:55:52;;;;;;;6.20;3.67;;;;;;;19.37;77.39;100818.19;5039074;28;20204;-73
2021/08/15 06:58:18;;;;;;;7.50;4.53;;;;;;;19.44;77.26;100808.94;5041236;28;20207;-72
2021/08/15 07:00:44;;;;;;;7.03;4.10;;;;;;;19.45;75.24;100813.31;5037849;28;20605;-74
2021/08/15 07:03:12;;;;;;;6.50;4.07;;;;;;;19.49;76.70;100812.16;5042195;28;20203;-74
2021/08/15 07:05:39;;;;;;;7.90;4.10;;;;;;;19.56;75.10;100820.56;5040692;28;20203;-71
2021/08/15 07:08:05;;;;;;;5.80;4.03;;;;;;;19.72;74.62;100820.50;5043373;28;20210;-73
2021/08/15 07:10:32;;;;;;;6.07;3.90;;;;;;;19.76;75.07;100818.53;5044091;28;20222;-72
2021/08/15 07:12:58;;;;;;;6.40;4.10;;;;;;;19.66;74.63;100815.56;5045347;28;20214;-71
2021/08/15 07:15:28;;;;;;;5.30;3.63;;;;;;;19.70;74.63;100814.44;5038393;28;20306;-72
2021/08/15 07:17:55;;;;;;;6.50;4.03;;;;;;;19.72;74.21;100809.03;5040469;28;20207;-73
2021/08/15 07:20:23;;;;;;;4.57;3.53;;;;;;;19.83;75.12;100806.63;5043400;28;20293;-74
2021/08/15 07:22:50;;;;;;;6.27;4.20;;;;;;;19.91;74.14;100793.78;5041750;28;20227;-74
2021/08/15 07:26:12;;;;;;;7.53;3.80;;;;;;;19.98;73.66;100797.75;5045186;28;20215;-70
2021/08/15 07:28:39;;;;;;;4.90;3.50;;;;;;;20.10;73.20;100793.44;5064876;28;20213;-74
2021/08/15 07:31:05;;;;;;;5.07;3.87;;;;;;;20.28;72.88;100791.44;5060463;28;20756;-73
2021/08/15 07:33:32;;;;;;;6.00;3.40;;;;;;;20.39;71.50;100799.53;5065458;28;20206;-73
2021/08/15 07:35:59;;;;;;;6.27;3.57;;;;;;;20.54;70.62;100800.31;5061847;28;20671;-72
2021/08/15 07:38:26;;;;;;;8.03;3.63;;;;;;;20.74;69.25;100814.13;5066524;28;20655;-73
2021/08/15 07:40:52;;;;;;;6.70;3.23;;;;;;;20.84;69.93;100803.75;5058233;28;20706;-74
2021/08/15 07:43:18;;;;;;;5.70;3.50;;;;;;;20.95;69.29;100804.75;5062103;28;20210;-74
2021/08/15 07:45:45;;;;;;;5.13;3.27;;;;;;;21.01;66.12;100816.72;5062975;28;20202;-73
2021/08/15 07:48:12;;;;;;;6.57;3.50;;;;;;;21.08;65.89;100817.16;5061847;28;20199;-70
2021/08/15 07:50:39;;;;;;;5.07;2.93;;;;;;;21.30;66.38;100805.94;5062932;28;20214;-73
2021/08/15 07:53:18;;;;;;;6.73;3.63;;;;;;;21.41;66.81;100807.88;5058035;28;20211;-74
2021/08/15 07:55:45;;;;;;;4.17;3.20;;;;;;;21.57;68.84;100807.69;5066351;28;20198;-72
2021/08/15 07:58:12;;;;;;;4.43;3.37;;;;;;;21.63;65.97;100817.88;5059791;28;20671;-74
2021/08/15 08:00:38;;;;;;;6.17;3.23;;;;;;;21.64;64.99;100816.94;5059865;28;20884;-72
2021/08/15 08:03:04;;;;;;;6.40;3.07;;;;;;;21.80;65.92;100816.69;5060914;28;20221;-72
2021/08/15 08:05:31;;;;;;;7.27;3.80;;;;;;;21.82;66.47;100818.28;5064951;28;20609;-72
2021/08/15 08:07:57;;;;;;;3.97;3.33;;;;;;;21.98;64.49;100820.69;5060423;28;20613;-73
2021/08/15 08:10:25;;;;;;;5.23;3.33;;;;;;;22.05;63.73;100810.50;5056108;28;20214;-73
2021/08/15 08:12:51;;;;;;;8.70;3.60;;;;;;;22.19;65.03;100818.31;5061801;28;20209;-73
2021/08/15 08:15:18;;;;;;;7.97;3.73;;;;;;;22.31;62.45;100819.28;5061603;28;20686;-74
2021/08/15 08:17:44;;;;;;;4.97;3.20;;;;;;;22.38;64.15;100817.88;5058710;28;20207;-71
2021/08/15 08:20:12;;;;;;;6.73;3.07;;;;;;;22.51;64.80;100817.81;5057142;28;20698;-72
2021/08/15 08:22:39;;;;;;;5.23;3.43;;;;;;;22.50;63.23;100816.13;5061763;28;20281;-74
2021/08/15 08:25:06;;;;;;;5.67;3.50;;;;;;;22.43;61.59;100814.88;5061565;28;20198;-70
2021/08/15 08:27:33;;;;;;;6.77;3.70;;;;;;;22.54;63.31;100798.16;5062718;28;20203;-74
2021/08/15 08:30:00;;;;;;;6.67;3.53;;;;;;;22.48;61.98;100802.97;5061653;28;20389;-71
2021/08/15 08:32:26;;;;;;;5.67;3.20;;;;;;;22.61;64.64;100797.56;5059184;28;20195;-74
2021/08/15 08:34:52;;;;;;;7.13;3.30;;;;;;;22.75;62.11;100806.34;5068931;28;20199;-74
2021/08/15 08:37:19;;;;;;;4.75;3.10;;;;;;;23.00;61.87;100794.69;5057391;28;20206;-74
2021/08/15 08:39:45;;;;;;;5.43;3.35;;;;;;;23.10;59.50;100809.03;5064151;28;20233;-72
2021/08/15 08:42:12;;;;;;;7.82;3.30;;;;;;;23.14;58.90;100804.31;5056675;28;20215;-74
2021/08/15 08:44:41;;;;;;;7.47;3.72;;;;;;;23.08;60.73;100799.47;5062944;28;20213;-74
2021/08/15 08:47:10;;;;;;;8.30;3.45;;;;;;;23.06;60.37;100797.78;5059156;28;20210;-73
2021/08/15 08:49:39;;;;;;;5.80;3.17;;;;;;;23.14;60.67;100791.03;5061910;28;20227;-72
2021/08/15 08:52:07;;;;;;;6.00;3.25;;;;;;;23.37;61.08;100782.09;5057976;28;20384;-74
2021/08/15 08:54:34;;;;;;;9.18;3.47;;;;;;;23.50;58.94;100789.13;5062523;28;20294;-70
2021/08/15 08:57:00;;;;;;;6.90;3.38;;;;;;;23.42;57.25;100787.09;5064660;28;20203;-74
2021/08/15 08:59:27;;;;;;;5.30;2.83;;;;;;;23.55;58.56;100776.31;5064148;28;20206;-74
2021/08/15 09:01:54;;;;;;;6.70;3.30;;;;;;;23.72;60.16;100769.69;5065323;28;20551;-73
2021/08/15 09:04:21;;;;;;;4.93;3.30;;;;;;;23.89;59.11;100769.22;5063394;28;20574;-74
2021/08/15 09:06:48;;;;;;;10.02;3.45;;;;;;;23.86;59.72;100768.63;5069557;28;20689;-73
2021/08/15 09:09:16;;;;;;;6.28;3.28;;;;;;;24.02;60.67;100778.88;5063798;28;20199;-73
2021/08/15 09:11:45;;;;;;;4.18;2.95;;;;;;;24.07;58.09;100768.72;5068418;28;20646;-71
2021/08/15 09:14:13;;;;;;;7.28;3.13;;;;;;;24.23;57.45;100771.81;5061739;28;20210;-74
2021/08/15 09:16:53;;;;;;;6.20;3.05;;;;;;;24.27;56.94;100769.75;5068814;28;20578;-73
2021/08/15 09:19:26;;;;;;;6.75;3.13;;;;;;;24.31;57.04;100768.50;5070038;28;20296;-74
2021/08/15 09:21:55;;;;;;;4.72;2.80;;;;;;;24.29;55.53;100766.00;5064302;28;20697;-74
2021/08/15 09:24:21;;;;;;;7.10;3.35;;;;;;;24.43;57.83;100764.88;5069313;28;20206;-72
2021/08/15 09:26:55;;;;;;;5.93;3.13;;;;;;;24.32;53.38;100763.06;5064400;28;20199;-73
2021/08/15 09:29:22;;;;;;;5.22;3.50;;;;;;;24.46;55.03;100758.41;5064016;28;20759;-74
2021/08/15 09:31:48;;;;;;;5.47;3.10;;;;;;;24.62;58.17;100750.03;5064463;28;20645;-73
2021/08/15 09:34:27;;;;;;;5.50;3.10;;;;;;;24.69;53.73;100760.03;5069790;28;20209;-74
2021/08/15 09:36:53;;;;;;;5.55;3.17;;;;;;;24.69;54.39;100749.38;5069641;28;20410;-74
2021/08/15 09:39:31;;;;;;;4.32;2.88;;;;;;;24.66;54.99;100741.66;5059870;28;20285;-73
2021/08/15 09:41:57;;;;;;;5.10;3.20;;;;;;;24.60;54.89;100734.16;5069195;28;20410;-74
2021/08/15 09:44:26;;;;;;;10.23;3.78;;;;;;;24.59;55.17;100735.16;5063856;28;20202;-72
2021/08/15 09:46:57;;;;;;;6.47;3.38;;;;;;;24.46;53.98;100745.09;5064839;28;20762;-74
2021/08/15 09:49:31;;;;;;;7.28;3.20;;;;;;;24.48;55.51;100735.16;5059802;28;20560;-73
2021/08/15 09:51:58;;;;;;;5.97;3.10;;;;;;;24.54;56.91;100721.38;5067972;28;20198;-74
2021/08/15 09:54:25;;;;;;;7.65;3.75;;;;;;;24.65;57.54;100718.63;5064618;28;20195;-72
2021/08/15 09:56:51;;;;;;;6.60;3.00;;;;;;;24.66;54.44;100725.66;5064129;28;20207;-74
2021/08/15 09:59:19;;;;;;;9.43;3.78;;;;;;;24.70;55.06;100728.91;5065301;28;20198;-72
2021/08/15 10:01:47;;;;;;;4.57;3.05;;;;;;;24.67;55.05;100738.00;5060875;28;20226;-74
2021/08/15 10:04:14;;;;;;;6.25;3.17;;;;;;;24.55;54.71;100736.38;5068955;28;20198;-73
2021/08/15 10:06:44;;;;;;;5.93;3.38;;;;;;;24.53;55.36;100722.28;5061330;28;20210;-73
2021/08/15 10:09:11;;;;;;;6.85;2.85;;;;;;;24.66;55.99;100720.34;5060211;28;20208;-72
2021/08/15 10:11:39;;;;;;;4.90;3.25;;;;;;;24.80;56.63;100711.19;5060704;28;20218;-73
2021/08/15 10:14:07;;;;;;;5.65;3.05;;;;;;;24.88;54.82;100707.84;5065046;28;20206;-72
2021/08/15 10:16:36;;;;;;;5.05;3.13;;;;;;;24.79;55.39;100701.47;5068373;28;20195;-72
2021/08/15 10:19:08;;;;;;;7.00;3.40;;;;;;;24.89;56.21;100712.19;5059078;28;20583;-74
2021/08/15 10:21:39;;;;;;;6.75;3.17;;;;;;;25.03;54.69;100711.88;5064322;28;20227;-74
2021/08/15 10:24:09;;;;;;;7.05;3.08;;;;;;;25.00;55.62;100701.47;5061207;28;20214;-73
2021/08/15 10:26:41;;;;;;;8.50;3.33;;;;;;;25.12;53.65;100710.22;5060811;28;20198;-71
2021/08/15 10:29:31;;;;;;;6.65;3.03;;;;;;;25.20;54.58;100710.41;5043565;28;20199;-74
2021/08/15 10:32:12;;;;;;;6.15;3.08;;;;;;;25.30;54.58;100713.16;5059201;28;20206;-73
2021/08/15 10:35:15;;;;;;;4.20;2.92;;;;;;;25.21;53.82;100705.94;5063950;28;20194;-74
2021/08/15 10:37:42;;;;;;;4.60;2.97;;;;;;;25.20;54.45;100699.72;5061594;28;20212;-73
2021/08/15 10:40:58;;;;;;;5.55;2.97;;;;;;;25.30;53.85;100706.00;5062969;28;20238;-74
2021/08/15 10:43:58;;;;;;;7.07;3.42;;;;;;;25.32;52.28;100695.19;5056789;28;20571;-73
2021/08/15 10:46:24;;;;;;;4.28;2.97;;;;;;;25.41;51.79;100690.88;5061045;28;20203;-74
2021/08/15 10:48:52;;;;;;;6.45;3.22;;;;;;;25.57;51.90;100687.69;5064879;28;20203;-72
2021/08/15 10:51:48;;;;;;;4.13;2.92;;;;;;;25.62;50.51;100683.63;5059850;28;20214;-74
2021/08/15 10:55:04;;;;;;;3.92;3.20;;;;;;;25.72;50.78;100675.66;5057451;28;20203;-72
2021/08/15 10:57:51;;;;;;;6.10;3.25;;;;;;;25.69;51.17;100679.41;5060800;28;20205;-74
2021/08/15 11:00:42;;;;;;;7.18;3.50;;;;;;;25.67;50.84;100683.22;5063505;28;20226;-74
2021/08/15 11:03:38;;;;;;;6.22;3.33;;;;;;;25.67;50.83;100673.38;5062864;28;20580;-74
2021/08/15 11:06:26;;;;;;;7.07;3.47;;;;;;;25.68;50.39;100669.75;5062845;28;20210;-72
2021/08/15 11:08:55;;;;;;;3.88;2.75;;;;;;;25.60;53.62;100658.06;5059242;28;20238;-73
2021/08/15 11:11:30;;;;;;;4.20;3.15;;;;;;;25.78;52.88;100651.06;5063748;28;20287;-74
2021/08/15 11:14:24;;;;;;;6.13;3.03;;;;;;;26.04;52.18;100655.91;5057845;28;20563;-73
2021/08/15 11:16:53;;;;;;;3.92;2.70;;;;;;;26.15;51.23;100647.75;5058369;28;20303;-74
2021/08/15 11:19:30;;;;;;;6.93;3.58;;;;;;;26.25;51.36;100659.28;5062339;28;20809;-74
2021/08/15 11:22:03;;;;;;;4.05;2.75;;;;;;;26.31;49.80;100657.03;5059361;28;20330;-74
2021/08/15 11:24:29;;;;;;;7.07;3.15;;;;;;;26.55;51.29;100645.91;5063660;28;20682;-74
2021/08/15 11:26:56;;;;;;;4.63;2.85;;;;;;;26.56;50.22;100647.56;5056162;28;20282;-74
2021/08/15 11:29:24;;;;;;;4.53;3.15;;;;;;;26.65;48.79;100646.75;5063733;28;20703;-74
2021/08/15 11:31:54;;;;;;;5.75;3.20;;;;;;;26.83;50.45;100645.00;5062071;28;20197;-74
2021/08/15 11:34:21;;;;;;;4.43;2.90;;;;;;;26.98;48.52;100648.06;5061232;28;20202;-74
2021/08/15 11:36:55;;;;;;;6.40;2.80;;;;;;;27.05;48.95;100647.47;5061317;28;20697;-74
2021/08/15 11:39:29;;;;;;;4.30;2.70;;;;;;;27.14;48.28;100646.56;5059818;28;20206;-72
2021/08/15 11:41:56;;;;;;;7.90;3.25;;;;;;;27.18;48.78;100634.59;5063910;28;20198;-72
2021/08/15 11:44:22;;;;;;;3.60;2.70;;;;;;;27.03;47.63;100636.91;5060364;28;20226;-73
2021/08/15 11:46:48;;;;;;;5.70;2.58;;;;;;;26.99;47.32;100636.34;5060797;28;20202;-74
2021/08/15 11:49:34;;;;;;;4.43;2.80;;;;;;;26.99;48.00;100632.84;5063770;28;20206;-74